Time,TemperatureF,DewpointF,PressureIn,WindDirection,WindDirectionDegrees,WindSpeedMPH,WindSpeedGustMPH,Humidity,HourlyPrecipIn,Conditions,Clouds,dailyrainin,SoftwareType,DateUTC
2013-04-09 00:00:00,38.8,38.0,30.29,NW,309,0.0,0.0,97,0.00,,,0.00,Wunderground v.1.15,2013-04-09 07:00:00,
2013-04-09 00:10:00,38.8,38.0,30.29,NW,309,0.0,0.0,97,0.00,,,0.00,Wunderground v.1.15,2013-04-09 07:10:00,
2013-04-09 00:25:00,38.6,37.8,30.29,NW,309,0.0,0.0,97,0.00,,,0.00,Wunderground v.1.15,2013-04-09 07:25:00,
2013-04-09 00:35:00,38.6,37.8,30.29,NW,309,0.0,0.0,97,0.00,,,0.00,Wunderground v.1.15,2013-04-09 07:35:00,
2013-04-09 00:45:00,38.7,38.2,30.29,NW,309,0.0,0.0,98,0.00,,,0.00,Wunderground v.1.15,2013-04-09 07:45:00,
2013-04-09 00:50:00,38.9,38.4,30.29,NW,309,0.0,0.0,98,0.00,,,0.00,Wunderground v.1.15,2013-04-09 07:50:00,
2013-04-09 00:55:00,39.0,38.5,30.29,NW,309,0.0,0.0,98,0.00,,,0.00,Wunderground v.1.15,2013-04-09 07:55:00,
2013-04-09 01:05:00,39.2,38.7,30.29,NW,309,0.0,0.0,98,0.00,,,0.00,Wunderground v.1.15,2013-04-09 08:05:00,
2013-04-09 01:10:00,39.2,38.7,30.29,NW,309,0.0,0.0,98,0.00,,,0.00,Wunderground v.1.15,2013-04-09 08:10:00,
2013-04-09 01:20:00,39.4,38.9,30.29,NW,309,0.0,0.0,98,0.00,,,0.00,Wunderground v.1.15,2013-04-09 08:20:00,
2013-04-09 01:25:00,39.4,38.9,30.29,NW,309,0.0,0.0,98,0.00,,,0.00,Wunderground v.1.15,2013-04-09 08:25:00,
2013-04-09 01:35:00,39.6,39.1,30.29,NW,309,0.0,0.0,98,0.00,,,0.00,Wunderground v.1.15,2013-04-09 08:35:00,
2013-04-09 01:45:00,39.7,39.2,30.29,NW,309,0.0,0.0,98,0.00,,,0.00,Wunderground v.1.15,2013-04-09 08:45:00,
2013-04-09 01:55:00,39.6,39.1,30.30,NW,309,0.0,0.0,98,0.00,,,0.00,Wunderground v.1.15,2013-04-09 08:55:00,
2013-04-09 02:00:00,39.5,39.0,30.29,NW,309,0.0,0.0,98,0.00,,,0.00,Wunderground v.1.15,2013-04-09 09:00:00,
2013-04-09 02:10:00,39.3,38.8,30.29,NW,309,0.0,0.0,98,0.00,,,0.00,Wunderground v.1.15,2013-04-09 09:10:00,
2013-04-09 02:20:00,39.3,38.8,30.28,NW,309,0.0,0.0,98,0.00,,,0.00,Wunderground v.1.15,2013-04-09 09:20:00,
2013-04-09 02:25:00,39.2,38.7,30.28,NW,309,0.0,0.0,98,0.00,,,0.00,Wunderground v.1.15,2013-04-09 09:25:00,
2013-04-09 02:35:00,38.9,38.4,30.28,NW,309,0.0,0.0,98,0.00,,,0.00,Wunderground v.1.15,2013-04-09 09:35:00,
2013-04-09 02:45:00,38.7,38.2,30.28,NW,309,0.0,0.0,98,0.00,,,0.00,Wunderground v.1.15,2013-04-09 09:45:00,
2013-04-09 02:50:00,38.5,37.7,30.28,NW,309,0.0,0.0,97,0.00,,,0.00,Wunderground v.1.15,2013-04-09 09:50:00,
2013-04-09 03:00:00,38.2,37.4,30.28,NW,309,0.0,0.0,97,0.00,,,0.00,Wunderground v.1.15,2013-04-09 10:00:00,
2013-04-09 03:10:00,38.1,37.6,30.28,NW,309,0.0,0.0,98,0.00,,,0.00,Wunderground v.1.15,2013-04-09 10:10:00,
2013-04-09 03:20:00,38.1,37.6,30.28,NW,309,0.0,0.0,98,0.00,,,0.00,Wunderground v.1.15,2013-04-09 10:20:00,
2013-04-09 03:25:00,38.2,37.7,30.28,NW,309,0.0,0.0,98,0.00,,,0.00,Wunderground v.1.15,2013-04-09 10:25:00,
2013-04-09 03:35:00,38.3,37.8,30.28,NW,309,0.0,0.0,98,0.00,,,0.00,Wunderground v.1.15,2013-04-09 10:35:00,
2013-04-09 03:45:00,38.5,38.0,30.28,NW,309,0.0,0.0,98,0.00,,,0.00,Wunderground v.1.15,2013-04-09 10:45:00,
2013-04-09 03:55:00,38.6,38.1,30.28,NW,309,0.0,0.0,98,0.00,,,0.00,Wunderground v.1.15,2013-04-09 10:55:00,
2013-04-09 04:00:00,38.7,38.2,30.28,NW,309,0.0,0.0,98,0.00,,,0.00,Wunderground v.1.15,2013-04-09 11:00:00,
2013-04-09 04:10:00,38.7,38.2,30.28,NW,309,0.0,0.0,98,0.00,,,0.00,Wunderground v.1.15,2013-04-09 11:10:00,
2013-04-09 04:20:00,38.8,38.3,30.28,NW,309,0.0,0.0,98,0.00,,,0.00,Wunderground v.1.15,2013-04-09 11:20:00,
2013-04-09 04:25:00,38.8,38.3,30.28,NW,309,0.0,0.0,98,0.00,,,0.00,Wunderground v.1.15,2013-04-09 11:25:00,
2013-04-09 04:35:00,39.0,38.5,30.28,NW,309,0.0,0.0,98,0.00,,,0.00,Wunderground v.1.15,2013-04-09 11:35:00,
2013-04-09 04:45:00,39.2,38.9,30.28,NW,309,0.0,0.0,99,0.00,,,0.00,Wunderground v.1.15,2013-04-09 11:45:00,
2013-04-09 04:55:00,39.2,38.9,30.29,NW,309,0.0,0.0,99,0.00,,,0.00,Wunderground v.1.15,2013-04-09 11:55:00,
2013-04-09 05:00:00,39.1,38.6,30.29,NW,309,0.0,0.0,98,0.00,,,0.00,Wunderground v.1.15,2013-04-09 12:00:00,
2013-04-09 05:10:00,39.1,38.6,30.28,NW,309,0.0,0.0,98,0.00,,,0.00,Wunderground v.1.15,2013-04-09 12:10:00,
2013-04-09 05:20:00,39.2,38.7,30.29,NW,309,0.0,0.0,98,0.00,,,0.00,Wunderground v.1.15,2013-04-09 12:20:00,
2013-04-09 05:30:00,39.1,38.6,30.29,NW,309,0.0,0.0,98,0.00,,,0.00,Wunderground v.1.15,2013-04-09 12:30:00,
2013-04-09 05:40:00,39.1,38.6,30.29,NW,309,0.0,0.0,98,0.00,,,0.00,Wunderground v.1.15,2013-04-09 12:40:00,
2013-04-09 05:50:00,39.2,38.9,30.29,NW,309,0.0,0.0,99,0.00,,,0.00,Wunderground v.1.15,2013-04-09 12:50:00,
2013-04-09 06:00:00,39.3,39.0,30.29,NW,309,0.0,0.0,99,0.00,,,0.00,Wunderground v.1.15,2013-04-09 13:00:00,
2013-04-09 06:10:00,39.3,39.0,30.29,NW,309,0.0,0.0,99,0.00,,,0.00,Wunderground v.1.15,2013-04-09 13:10:00,
2013-04-09 06:20:00,39.4,39.1,30.29,NW,309,0.0,0.0,99,0.00,,,0.00,Wunderground v.1.15,2013-04-09 13:20:00,
2013-04-09 06:30:00,39.6,39.3,30.29,NW,309,0.0,0.0,99,0.00,,,0.00,Wunderground v.1.15,2013-04-09 13:30:00,
2013-04-09 06:35:00,39.6,39.3,30.29,NW,309,0.0,0.0,99,0.00,,,0.00,Wunderground v.1.15,2013-04-09 13:35:00,
2013-04-09 06:45:00,39.6,39.3,30.29,NW,309,0.0,0.0,99,0.00,,,0.00,Wunderground v.1.15,2013-04-09 13:45:00,
2013-04-09 06:55:00,39.7,39.4,30.28,NW,309,0.0,0.0,99,0.00,,,0.00,Wunderground v.1.15,2013-04-09 13:55:00,
2013-04-09 07:00:00,39.7,39.4,30.28,NW,309,0.0,0.0,99,0.00,,,0.00,Wunderground v.1.15,2013-04-09 14:00:00,
2013-04-09 07:10:00,39.9,39.6,30.28,NW,309,0.0,0.0,99,0.00,,,0.00,Wunderground v.1.15,2013-04-09 14:10:00,
2013-04-09 07:20:00,40.1,39.8,30.29,NW,309,0.0,1.0,99,0.00,,,0.00,Wunderground v.1.15,2013-04-09 14:20:00,
2013-04-09 07:30:00,40.0,39.7,30.29,NW,309,0.0,0.0,99,0.00,,,0.00,Wunderground v.1.15,2013-04-09 14:30:00,
2013-04-09 07:40:00,40.1,39.8,30.30,NW,309,0.0,0.0,99,0.00,,,0.00,Wunderground v.1.15,2013-04-09 14:40:00,
2013-04-09 07:50:00,40.3,40.0,30.30,NW,309,0.0,0.0,99,0.00,,,0.00,Wunderground v.1.15,2013-04-09 14:50:00,
2013-04-09 08:00:00,40.7,40.4,30.29,NW,309,0.0,0.0,99,0.00,,,0.00,Wunderground v.1.15,2013-04-09 15:00:00,
2013-04-09 08:10:00,41.0,40.7,30.30,NW,309,0.0,0.0,99,0.00,,,0.00,Wunderground v.1.15,2013-04-09 15:10:00,
2013-04-09 08:20:00,41.3,41.0,30.30,NW,309,0.0,0.0,99,0.00,,,0.00,Wunderground v.1.15,2013-04-09 15:20:00,
2013-04-09 08:30:00,41.6,41.3,30.31,NW,309,0.0,0.0,99,0.00,,,0.00,Wunderground v.1.15,2013-04-09 15:30:00,
2013-04-09 08:40:00,42.2,41.9,30.30,SE,138,0.0,0.0,99,0.00,,,0.00,Wunderground v.1.15,2013-04-09 15:40:00,
2013-04-09 08:50:00,42.8,42.5,30.31,SE,138,0.0,0.0,99,0.00,,,0.00,Wunderground v.1.15,2013-04-09 15:50:00,
2013-04-09 09:00:00,43.4,42.9,30.31,North,355,0.0,1.0,98,0.00,,,0.00,Wunderground v.1.15,2013-04-09 16:00:00,
2013-04-09 09:10:00,43.6,42.8,30.31,North,355,0.0,0.0,97,0.00,,,0.00,Wunderground v.1.15,2013-04-09 16:10:00,
2013-04-09 09:20:00,44.0,42.9,30.30,East,86,0.0,0.0,96,0.00,,,0.00,Wunderground v.1.15,2013-04-09 16:20:00,
2013-04-09 09:30:00,44.9,43.8,30.30,East,94,0.0,1.0,96,0.00,,,0.00,Wunderground v.1.15,2013-04-09 16:30:00,
2013-04-09 09:35:00,45.5,44.2,30.30,SE,138,0.0,1.0,95,0.00,,,0.00,Wunderground v.1.15,2013-04-09 16:35:00,
2013-04-09 09:45:00,46.3,44.1,30.30,ESE,112,0.0,0.0,92,0.00,,,0.00,Wunderground v.1.15,2013-04-09 16:45:00,
2013-04-09 09:50:00,46.8,44.0,30.30,East,98,0.0,0.0,90,0.00,,,0.00,Wunderground v.1.15,2013-04-09 16:50:00,
2013-04-09 10:00:00,47.5,44.1,30.30,ENE,64,0.0,0.0,88,0.00,,,0.00,Wunderground v.1.15,2013-04-09 17:00:00,
2013-04-09 10:10:00,48.8,45.4,30.30,SSW,207,0.0,0.0,88,0.00,,,0.00,Wunderground v.1.15,2013-04-09 17:10:00,
2013-04-09 10:20:00,49.5,45.5,30.31,NW,319,1.0,1.0,86,0.00,,,0.00,Wunderground v.1.15,2013-04-09 17:20:00,
2013-04-09 10:25:00,49.9,45.6,30.31,NW,313,2.0,2.0,85,0.00,,,0.00,Wunderground v.1.15,2013-04-09 17:25:00,
2013-04-09 10:35:00,50.5,46.2,30.31,North,355,1.0,3.0,85,0.00,,,0.00,Wunderground v.1.15,2013-04-09 17:35:00,
2013-04-09 10:45:00,51.2,46.2,30.31,WSW,248,2.0,2.0,83,0.00,,,0.00,Wunderground v.1.15,2013-04-09 17:45:00,
2013-04-09 10:55:00,51.8,46.8,30.31,North,355,1.0,2.0,83,0.00,,,0.00,Wunderground v.1.15,2013-04-09 17:55:00,
2013-04-09 11:00:00,52.2,46.5,30.30,North,355,1.0,1.0,81,0.00,,,0.00,Wunderground v.1.15,2013-04-09 18:00:00,
2013-04-09 11:10:00,52.9,47.2,30.31,NNE,26,0.0,0.0,81,0.00,,,0.00,Wunderground v.1.15,2013-04-09 18:10:00,
2013-04-09 11:20:00,54.3,47.2,30.31,NNW,338,1.0,2.0,77,0.00,,,0.00,Wunderground v.1.15,2013-04-09 18:20:00,
2013-04-09 11:35:00,55.8,46.2,30.29,SE,138,1.0,2.0,70,0.00,,,0.00,Wunderground v.1.15,2013-04-09 18:35:00,
2013-04-09 11:45:00,56.6,47.7,30.30,North,355,1.0,1.0,72,0.00,,,0.00,Wunderground v.1.15,2013-04-09 18:45:00,
2013-04-09 11:55:00,57.1,48.9,30.30,East,86,1.0,1.0,74,0.00,,,0.00,Wunderground v.1.15,2013-04-09 18:55:00,
2013-04-09 12:00:00,57.3,48.7,30.30,WNW,292,2.0,2.0,73,0.00,,,0.00,Wunderground v.1.15,2013-04-09 19:00:00,
2013-04-09 12:10:00,57.4,46.9,30.29,NW,317,2.0,6.0,68,0.00,,,0.00,Wunderground v.1.15,2013-04-09 19:10:00,
2013-04-09 12:20:00,57.2,47.5,30.29,North,355,2.0,2.0,70,0.00,,,0.00,Wunderground v.1.15,2013-04-09 19:20:00,
2013-04-09 12:30:00,57.5,46.2,30.29,NW,326,1.0,1.0,66,0.00,,,0.00,Wunderground v.1.15,2013-04-09 19:30:00,
2013-04-09 12:35:00,58.0,46.7,30.28,WNW,283,2.0,3.0,66,0.00,,,0.00,Wunderground v.1.15,2013-04-09 19:35:00,
2013-04-09 12:45:00,59.1,46.9,30.28,NNW,336,1.0,3.0,64,0.00,,,0.00,Wunderground v.1.15,2013-04-09 19:45:00,
2013-04-09 12:55:00,60.2,49.2,30.28,NE,38,1.0,2.0,67,0.00,,,0.00,Wunderground v.1.15,2013-04-09 19:55:00,
2013-04-09 13:00:00,60.7,46.7,30.28,WNW,288,2.0,2.0,60,0.00,,,0.00,Wunderground v.1.15,2013-04-09 20:00:00,
2013-04-09 13:10:00,61.2,46.3,30.27,NNE,26,1.0,1.0,58,0.00,,,0.00,Wunderground v.1.15,2013-04-09 20:10:00,
2013-04-09 13:20:00,61.1,47.5,30.27,North,351,1.0,1.0,61,0.00,,,0.00,Wunderground v.1.15,2013-04-09 20:20:00,
2013-04-09 13:30:00,60.9,44.6,30.27,NNW,327,1.0,1.0,55,0.00,,,0.00,Wunderground v.1.15,2013-04-09 20:30:00,
2013-04-09 13:40:00,61.4,46.0,30.27,NNE,32,0.0,2.0,57,0.00,,,0.00,Wunderground v.1.15,2013-04-09 20:40:00,
2013-04-09 13:50:00,62.0,44.2,30.27,North,5,1.0,1.0,52,0.00,,,0.00,Wunderground v.1.15,2013-04-09 20:50:00,
2013-04-09 14:00:00,62.4,46.5,30.27,West,272,2.0,4.0,56,0.00,,,0.00,Wunderground v.1.15,2013-04-09 21:00:00,
2013-04-09 14:10:00,62.6,48.5,30.27,WNW,296,2.0,2.0,60,0.00,,,0.00,Wunderground v.1.15,2013-04-09 21:10:00,
2013-04-09 14:15:00,62.7,46.8,30.27,NE,50,1.0,2.0,56,0.00,,,0.00,Wunderground v.1.15,2013-04-09 21:15:00,
2013-04-09 14:20:00,62.9,46.0,30.27,NW,317,2.0,7.0,54,0.00,,,0.00,Wunderground v.1.15,2013-04-09 21:20:00,
2013-04-09 14:30:00,63.8,43.7,30.27,WNW,297,2.0,2.0,48,0.00,,,0.00,Wunderground v.1.15,2013-04-09 21:30:00,
2013-04-09 14:40:00,64.4,43.7,30.27,NW,325,2.0,2.0,47,0.00,,,0.00,Wunderground v.1.15,2013-04-09 21:40:00,
2013-04-09 14:55:00,64.5,45.4,30.26,WNW,294,2.0,2.0,50,0.00,,,0.00,Wunderground v.1.15,2013-04-09 21:55:00,
2013-04-09 15:00:00,64.5,42.7,30.26,North,355,2.0,2.0,45,0.00,,,0.00,Wunderground v.1.15,2013-04-09 22:00:00,
2013-04-09 15:10:00,65.0,42.5,30.26,WNW,292,1.0,2.0,44,0.00,,,0.00,Wunderground v.1.15,2013-04-09 22:10:00,
2013-04-09 15:15:00,65.4,42.3,30.26,SSW,213,2.0,2.0,43,0.00,,,0.00,Wunderground v.1.15,2013-04-09 22:15:00,
2013-04-09 15:20:00,65.5,37.8,30.26,NW,312,2.0,2.0,36,0.00,,,0.00,Wunderground v.1.15,2013-04-09 22:20:00,
2013-04-09 15:30:00,66.5,39.4,30.26,NNW,348,2.0,2.0,37,0.00,,,0.00,Wunderground v.1.15,2013-04-09 22:30:00,
2013-04-09 15:40:00,66.3,42.5,30.25,North,360,2.0,3.0,42,0.00,,,0.00,Wunderground v.1.15,2013-04-09 22:40:00,
2013-04-09 15:50:00,65.4,46.8,30.26,WSW,254,4.0,4.0,51,0.00,,,0.00,Wunderground v.1.15,2013-04-09 22:50:00,
2013-04-09 15:55:00,64.5,48.0,30.25,WSW,253,4.0,11.0,55,0.00,,,0.00,Wunderground v.1.15,2013-04-09 22:55:00,
2013-04-09 16:00:00,63.9,47.9,30.26,West,280,4.0,5.0,56,0.00,,,0.00,Wunderground v.1.15,2013-04-09 23:00:00,
2013-04-09 16:10:00,63.5,48.9,30.26,WNW,298,5.0,6.0,59,0.00,,,0.00,Wunderground v.1.15,2013-04-09 23:10:00,
2013-04-09 16:20:00,62.8,48.7,30.26,NW,309,5.0,7.0,60,0.00,,,0.00,Wunderground v.1.15,2013-04-09 23:20:00,
2013-04-09 16:30:00,62.3,48.2,30.26,West,272,6.0,7.0,60,0.00,,,0.00,Wunderground v.1.15,2013-04-09 23:30:00,
2013-04-09 16:35:00,62.3,48.2,30.26,WNW,290,5.0,7.0,60,0.00,,,0.00,Wunderground v.1.15,2013-04-09 23:35:00,
2013-04-09 16:45:00,62.8,49.6,30.26,WSW,237,3.0,4.0,62,0.00,,,0.00,Wunderground v.1.15,2013-04-09 23:45:00,
2013-04-09 16:55:00,62.8,48.3,30.26,West,267,3.0,6.0,59,0.00,,,0.00,Wunderground v.1.15,2013-04-09 23:55:00,
2013-04-09 17:00:00,62.5,47.5,30.26,West,265,4.0,4.0,58,0.00,,,0.00,Wunderground v.1.15,2013-04-10 00:00:00,
2013-04-09 17:10:00,62.0,49.3,30.26,WSW,242,4.0,4.0,63,0.00,,,0.00,Wunderground v.1.15,2013-04-10 00:10:00,
2013-04-09 17:20:00,61.6,45.7,30.26,South,190,3.0,3.0,56,0.00,,,0.00,Wunderground v.1.15,2013-04-10 00:20:00,
2013-04-09 17:30:00,61.4,45.1,30.26,WNW,299,3.0,9.0,55,0.00,,,0.00,Wunderground v.1.15,2013-04-10 00:30:00,
2013-04-09 17:40:00,60.7,44.4,30.26,SSW,197,4.0,5.0,55,0.00,,,0.00,Wunderground v.1.15,2013-04-10 00:40:00,
2013-04-09 17:50:00,60.0,44.3,30.26,West,259,3.0,3.0,56,0.00,,,0.00,Wunderground v.1.15,2013-04-10 00:50:00,
2013-04-09 18:00:00,59.4,44.6,30.25,NNE,19,2.0,2.0,58,0.00,,,0.00,Wunderground v.1.15,2013-04-10 01:00:00,
2013-04-09 18:10:00,58.9,45.9,30.25,NW,319,2.0,2.0,62,0.00,,,0.00,Wunderground v.1.15,2013-04-10 01:10:00,
2013-04-09 18:20:00,58.2,45.7,30.25,NW,304,1.0,5.0,63,0.00,,,0.00,Wunderground v.1.15,2013-04-10 01:20:00,
2013-04-09 18:30:00,57.6,46.3,30.26,NW,304,1.0,1.0,66,0.00,,,0.00,Wunderground v.1.15,2013-04-10 01:30:00,
2013-04-09 18:35:00,57.4,46.5,30.26,WNW,288,1.0,1.0,67,0.00,,,0.00,Wunderground v.1.15,2013-04-10 01:35:00,
2013-04-09 18:45:00,57.7,45.6,30.26,WSW,254,2.0,3.0,64,0.00,,,0.00,Wunderground v.1.15,2013-04-10 01:45:00,
2013-04-09 18:55:00,57.3,46.8,30.26,WSW,243,2.0,2.0,68,0.00,,,0.00,Wunderground v.1.15,2013-04-10 01:55:00,
2013-04-09 19:00:00,56.8,46.0,30.26,WSW,248,1.0,1.0,67,0.00,,,0.00,Wunderground v.1.15,2013-04-10 02:00:00,
2013-04-09 19:10:00,56.5,46.4,30.26,NNW,333,2.0,2.0,69,0.00,,,0.00,Wunderground v.1.15,2013-04-10 02:10:00,
2013-04-09 19:20:00,55.9,45.9,30.26,WNW,296,1.0,1.0,69,0.00,,,0.00,Wunderground v.1.15,2013-04-10 02:20:00,
2013-04-09 19:30:00,55.2,45.6,30.26,WNW,284,1.0,1.0,70,0.00,,,0.00,Wunderground v.1.15,2013-04-10 02:30:00,
2013-04-09 19:40:00,54.4,45.6,30.26,West,270,1.0,1.0,72,0.00,,,0.00,Wunderground v.1.15,2013-04-10 02:40:00,
2013-04-09 19:50:00,53.8,46.1,30.25,West,273,1.0,1.0,75,0.00,,,0.00,Wunderground v.1.15,2013-04-10 02:50:00,
2013-04-09 20:00:00,52.9,44.8,30.26,WSW,257,0.0,0.0,74,0.00,,,0.00,Wunderground v.1.15,2013-04-10 03:00:00,
2013-04-09 20:10:00,52.5,44.8,30.26,WSW,257,0.0,0.0,75,0.00,,,0.00,Wunderground v.1.15,2013-04-10 03:10:00,
2013-04-09 20:20:00,51.8,45.2,30.26,WSW,257,0.0,0.0,78,0.00,,,0.00,Wunderground v.1.15,2013-04-10 03:20:00,
2013-04-09 20:30:00,51.2,44.6,30.26,WSW,257,0.0,0.0,78,0.00,,,0.00,Wunderground v.1.15,2013-04-10 03:30:00,
2013-04-09 20:40:00,50.7,44.4,30.26,WSW,257,0.0,0.0,79,0.00,,,0.00,Wunderground v.1.15,2013-04-10 03:40:00,
2013-04-09 20:50:00,50.2,44.3,30.26,WSW,257,0.0,0.0,80,0.00,,,0.00,Wunderground v.1.15,2013-04-10 03:50:00,
2013-04-09 21:00:00,49.7,44.4,30.26,WSW,257,0.0,0.0,82,0.00,,,0.00,Wunderground v.1.15,2013-04-10 04:00:00,
2013-04-09 21:10:00,49.3,44.0,30.26,WSW,257,0.0,0.0,82,0.00,,,0.00,Wunderground v.1.15,2013-04-10 04:10:00,
2013-04-09 21:15:00,49.1,44.2,30.26,WSW,257,0.0,0.0,83,0.00,,,0.00,Wunderground v.1.15,2013-04-10 04:15:00,
2013-04-09 21:20:00,48.9,44.0,30.26,WSW,257,0.0,0.0,83,0.00,,,0.00,Wunderground v.1.15,2013-04-10 04:20:00,
2013-04-09 21:25:00,48.7,44.1,30.26,WSW,257,0.0,0.0,84,0.00,,,0.00,Wunderground v.1.15,2013-04-10 04:25:00,
2013-04-09 21:30:00,48.5,44.2,30.27,WSW,257,0.0,0.0,85,0.00,,,0.00,Wunderground v.1.15,2013-04-10 04:30:00,
2013-04-09 21:40:00,48.0,44.0,30.27,WSW,257,0.0,0.0,86,0.00,,,0.00,Wunderground v.1.15,2013-04-10 04:40:00,
2013-04-09 21:50:00,47.7,44.0,30.27,WSW,257,0.0,0.0,87,0.00,,,0.00,Wunderground v.1.15,2013-04-10 04:50:00,
2013-04-09 22:00:00,47.4,44.0,30.28,WSW,257,0.0,0.0,88,0.00,,,0.00,Wunderground v.1.15,2013-04-10 05:00:00,
2013-04-09 22:10:00,47.2,44.1,30.28,WSW,257,0.0,0.0,89,0.00,,,0.00,Wunderground v.1.15,2013-04-10 05:10:00,
2013-04-09 22:20:00,47.0,43.9,30.28,WSW,257,0.0,0.0,89,0.00,,,0.00,Wunderground v.1.15,2013-04-10 05:20:00,
2013-04-09 22:30:00,46.8,44.0,30.28,WSW,257,0.0,0.0,90,0.00,,,0.00,Wunderground v.1.15,2013-04-10 05:30:00,
2013-04-09 22:40:00,46.5,43.7,30.28,WSW,257,0.0,0.0,90,0.00,,,0.00,Wunderground v.1.15,2013-04-10 05:40:00,
2013-04-09 22:50:00,46.4,43.6,30.28,WSW,257,0.0,0.0,90,0.00,,,0.00,Wunderground v.1.15,2013-04-10 05:50:00,
2013-04-09 23:00:00,46.2,43.4,30.27,WSW,257,0.0,0.0,90,0.00,,,0.00,Wunderground v.1.15,2013-04-10 06:00:00,
2013-04-09 23:10:00,46.1,43.6,30.27,WSW,257,0.0,0.0,91,0.00,,,0.00,Wunderground v.1.15,2013-04-10 06:10:00,
2013-04-09 23:20:00,45.7,42.9,30.27,WSW,257,0.0,0.0,90,0.00,,,0.00,Wunderground v.1.15,2013-04-10 06:20:00,
2013-04-09 23:30:00,45.3,42.8,30.27,WSW,257,0.0,0.0,91,0.00,,,0.00,Wunderground v.1.15,2013-04-10 06:30:00,
2013-04-09 23:35:00,45.1,42.6,30.27,WSW,257,0.0,0.0,91,0.00,,,0.00,Wunderground v.1.15,2013-04-10 06:35:00,
2013-04-09 23:45:00,44.7,42.5,30.27,WSW,257,0.0,0.0,92,0.00,,,0.00,Wunderground v.1.15,2013-04-10 06:45:00,
2013-04-09 23:55:00,44.2,42.3,30.26,WSW,257,0.0,0.0,93,0.00,,,0.00,Wunderground v.1.15,2013-04-10 06:55:00,